Time;durP1;ratioP1;P1;durP2;ratioP2;P2;SDS_P1;SDS_P2;PMS_P1;PMS_P2;Temp;Humidity;BMP_temperature;BMP_pressure;BME280_temperature;BME280_humidity;BME280_pressure;Samples;Min_cycle;Max_cycle;Signal;HPM_P1;HPM_P2
2021/01/23 00:04:28;;;;;;;16.23;7.80;;;6.50;99.90;;;;;;4978907;28;20438;-87
2021/01/23 00:07:31;;;;;;;9.07;7.03;;;6.40;99.90;;;;;;4966516;28;20465;-86
2021/01/23 00:10:29;;;;;;;11.20;8.20;;;6.40;99.90;;;;;;4960597;28;20482;-85
2021/01/23 00:13:28;;;;;;;12.00;7.40;;;6.40;99.90;;;;;;4957267;28;20467;-83
2021/01/23 00:16:53;;;;;;;8.73;7.83;;;6.50;99.90;;;;;;5206435;23;20862;-86
2021/01/23 00:20:36;;;;;;;;;;;;;;;;;;;;;
2021/01/23 00:23:56;;;;;;;7.90;7.20;;;6.50;99.90;;;;;;4959850;28;20478;-84
2021/01/23 00:27:37;;;;;;;9.10;7.57;;;6.50;99.90;;;;;;5020403;28;20529;-86
2021/01/23 00:30:49;;;;;;;;;;;;;;;;;;;;;
2021/01/23 00:34:21;;;;;;;8.23;7.30;;;6.10;99.90;;;;;;4990309;28;20443;-84
2021/01/23 00:41:26;;;;;;;9.27;6.80;;;6.00;99.90;;;;;;5030163;28;20430;-85
2021/01/23 00:44:50;;;;;;;;;;;;;;;;;;;;;
2021/01/23 00:47:48;;;;;;;11.47;8.97;;;5.80;99.90;;;;;;5028812;28;20434;-86
2021/01/23 00:50:51;;;;;;;8.80;7.63;;;6.10;99.90;;;;;;5028022;28;20442;-85
2021/01/23 00:54:21;;;;;;;14.30;8.60;;;6.10;99.90;;;;;;5003643;28;20581;-85
2021/01/23 00:57:49;;;;;;;9.33;7.80;;;5.90;99.90;;;;;;4998975;28;20926;-83
2021/01/23 01:04:44;;;;;;;;;;;;;;;;;;;;;
2021/01/23 01:07:43;;;;;;;10.17;7.90;;;6.00;99.90;;;;;;5012208;28;20465;-85
2021/01/23 01:10:57;;;;;;;8.27;7.47;;;6.00;99.90;;;;;;5001784;28;20469;-85
2021/01/23 01:13:50;;;;;;;9.90;7.83;;;6.10;99.90;;;;;;4978827;28;20441;-85
2021/01/23 01:16:29;;;;;;;7.57;6.83;;;6.00;99.90;;;;;;5001176;28;20481;-86
2021/01/23 01:19:25;;;;;;;11.37;8.77;;;5.90;99.90;;;;;;4988153;28;20490;-82
2021/01/23 01:32:50;;;;;;;11.00;9.50;;;5.90;99.90;;;;;;5138104;27;20652;-86
2021/01/23 01:35:41;;;;;;;9.80;8.80;;;6.00;99.90;;;;;;4593816;28;12464277;-83
2021/01/23 01:38:34;;;;;;;11.03;9.03;;;5.80;99.90;;;;;;5011676;28;20657;-85
2021/01/23 01:44:30;;;;;;;9.87;7.60;;;5.70;99.90;;;;;;5007488;28;20449;-85
2021/01/23 01:47:22;;;;;;;10.60;8.53;;;5.70;99.90;;;;;;4980883;28;20527;-86
2021/01/23 01:50:23;;;;;;;10.60;8.30;;;5.60;99.90;;;;;;5001446;28;20461;-84
2021/01/23 01:53:24;;;;;;;10.03;8.27;;;5.60;99.90;;;;;;5004769;28;20422;-85
2021/01/23 01:56:34;;;;;;;9.90;8.70;;;5.40;99.90;;;;;;5039743;22;20581;-85
2021/01/23 01:59:35;;;;;;;9.53;7.47;;;5.10;99.90;;;;;;5046501;28;20485;-84
2021/01/23 02:06:31;;;;;;;11.40;7.90;;;5.10;99.90;;;;;;5037373;28;20541;-86
2021/01/23 02:09:56;;;;;;;9.70;7.20;;;4.90;99.90;;;;;;5055408;28;20425;-86
2021/01/23 02:13:27;;;;;;;;;;;;;;;;;;;;;
2021/01/23 02:16:35;;;;;;;9.77;7.83;;;4.90;99.90;;;;;;5041455;28;20480;-83
2021/01/23 02:23:26;;;;;;;8.53;7.20;;;5.00;99.90;;;;;;5034727;28;20604;-86
2021/01/23 02:26:59;;;;;;;9.20;7.20;;;5.20;99.90;;;;;;5045843;28;20524;-85
2021/01/23 02:30:19;;;;;;;8.97;6.63;;;5.30;99.90;;;;;;5038207;28;20457;-85
2021/01/23 02:33:50;;;;;;;7.20;6.40;;;5.10;99.90;;;;;;4980363;28;21062;-85
2021/01/23 02:51:44;;;;;;;10.77;6.97;;;5.40;99.90;;;;;;5126443;27;20303;-83
2021/01/23 03:06:36;;;;;;;7.20;6.30;;;5.20;99.90;;;;;;4712720;27;11695114;-84
2021/01/23 03:09:49;;;;;;;6.90;5.67;;;5.20;99.90;;;;;;5115520;28;20195;-86
2021/01/23 03:12:44;;;;;;;8.23;6.20;;;5.10;99.90;;;;;;5103378;28;20468;-85
2021/01/23 03:15:27;;;;;;;7.60;5.63;;;4.90;99.90;;;;;;5124056;28;20959;-86
2021/01/23 03:18:34;;;;;;;8.23;5.90;;;4.90;99.90;;;;;;5098145;28;20565;-85
2021/01/23 03:21:30;;;;;;;7.70;6.13;;;5.00;99.90;;;;;;5098067;28;20485;-85
2021/01/23 03:24:23;;;;;;;7.10;6.37;;;5.10;99.90;;;;;;5095760;28;20487;-85
2021/01/23 03:27:32;;;;;;;7.00;6.10;;;5.00;99.90;;;;;;5097246;28;20441;-85
2021/01/23 03:30:15;;;;;;;7.47;5.70;;;4.90;99.90;;;;;;5088252;28;20453;-85
2021/01/23 03:32:57;;;;;;;7.50;5.30;;;4.80;99.90;;;;;;5085355;28;20449;-85
2021/01/23 03:35:50;;;;;;;;;;;;;;;;;;;;;
2021/01/23 03:38:37;;;;;;;7.33;5.97;;;4.90;99.90;;;;;;5116196;28;20438;-86
2021/01/23 03:41:36;;;;;;;6.80;5.20;;;4.80;99.90;;;;;;5098803;28;20425;-85
2021/01/23 03:44:29;;;;;;;5.60;5.20;;;4.90;99.90;;;;;;5094191;28;20452;-85
2021/01/23 03:47:12;;;;;;;6.90;5.80;;;4.90;99.90;;;;;;5093701;28;20469;-85
2021/01/23 03:50:31;;;;;;;6.63;5.40;;;4.90;99.90;;;;;;5112973;28;20460;-85
2021/01/23 03:53:10;;;;;;;7.07;5.43;;;5.00;99.90;;;;;;5086756;28;20457;-85
2021/01/23 03:55:47;;;;;;;6.40;4.60;;;4.90;99.90;;;;;;5079249;28;21122;-84
2021/01/23 03:58:34;;;;;;;7.37;5.30;;;5.00;99.90;;;;;;5096790;28;20929;-83
2021/01/23 04:01:44;;;;;;;5.30;4.80;;;4.90;99.90;;;;;;5097074;28;20452;-84
2021/01/23 04:07:54;;;;;;;7.10;5.73;;;4.90;99.90;;;;;;5101286;28;20530;-85
2021/01/23 04:13:53;;;;;;;6.30;4.60;;;4.70;99.90;;;;;;5090216;28;20441;-85
2021/01/23 04:16:45;;;;;;;5.60;5.00;;;4.50;99.90;;;;;;5072623;23;20499;-85
2021/01/23 04:19:28;;;;;;;9.60;5.80;;;4.50;99.90;;;;;;5057270;28;21050;-85
2021/01/23 04:23:01;;;;;;;4.63;3.80;;;4.40;99.90;;;;;;5063068;28;20503;-84
2021/01/23 04:25:39;;;;;;;6.20;5.00;;;4.30;99.90;;;;;;5059891;28;20476;-85
2021/01/23 04:28:33;;;;;;;5.93;5.30;;;4.40;99.90;;;;;;4996889;28;20442;-85
2021/01/23 04:31:53;;;;;;;7.53;6.47;;;4.40;99.90;;;;;;4994012;28;20576;-85
2021/01/23 04:34:38;;;;;;;6.50;4.87;;;4.50;99.90;;;;;;4986633;28;20482;-84
2021/01/23 04:37:40;;;;;;;;;;;;;;;;;;;;;
2021/01/23 04:40:19;;;;;;;8.53;6.23;;;4.50;99.90;;;;;;4997183;28;20532;-83
2021/01/23 04:46:15;;;;;;;8.17;6.00;;;4.50;99.90;;;;;;4996616;28;20839;-84
2021/01/23 04:49:00;;;;;;;8.27;6.30;;;4.40;99.90;;;;;;5008866;28;20436;-85
2021/01/23 04:52:02;;;;;;;6.83;6.13;;;4.50;99.90;;;;;;5000323;28;20536;-84
2021/01/23 04:54:50;;;;;;;10.50;5.90;;;4.50;99.90;;;;;;4939776;29;20481;-85
2021/01/23 04:57:37;;;;;;;5.50;4.90;;;4.50;99.90;;;;;;4991171;28;20486;-86
2021/01/23 05:00:39;;;;;;;5.30;4.30;;;4.60;99.90;;;;;;5044519;28;20423;-86
2021/01/23 05:03:31;;;;;;;8.23;6.20;;;4.60;99.90;;;;;;5023617;28;20444;-84
2021/01/23 05:06:19;;;;;;;8.77;5.67;;;4.60;99.90;;;;;;5038568;28;21027;-82
2021/01/23 05:09:00;;;;;;;7.83;5.13;;;4.50;99.90;;;;;;5043445;28;20971;-85
2021/01/23 05:12:20;;;;;;;7.63;5.20;;;4.50;99.90;;;;;;5044261;28;20459;-85
2021/01/23 05:15:01;;;;;;;7.67;6.20;;;4.50;99.90;;;;;;5036404;28;20487;-85
2021/01/23 05:21:45;;;;;;;;;;;;;;;;;;;;;
2021/01/23 05:24:47;;;;;;;5.67;4.47;;;4.30;99.90;;;;;;4963111;28;20463;-85
2021/01/23 05:27:53;;;;;;;13.03;5.57;;;4.50;99.90;;;;;;4963905;28;20472;-85
2021/01/23 05:37:26;;;;;;;8.43;5.40;;;4.60;99.90;;;;;;4900204;28;20535;-86
2021/01/23 05:40:16;;;;;;;7.63;5.80;;;4.60;99.90;;;;;;4965470;28;22410;-84
2021/01/23 05:43:32;;;;;;;6.03;5.13;;;4.60;99.90;;;;;;4988462;28;20549;-83
2021/01/23 05:46:33;;;;;;;10.07;5.87;;;4.60;99.90;;;;;;4639083;28;9999753;-83
2021/01/23 05:49:19;;;;;;;5.77;4.80;;;4.60;99.90;;;;;;5004640;28;20806;-83
2021/01/23 05:52:14;;;;;;;7.30;4.80;;;4.60;99.90;;;;;;5007262;28;20567;-85
2021/01/23 05:55:15;;;;;;;6.80;6.10;;;4.60;99.90;;;;;;4976281;28;21268;-85
2021/01/23 05:57:52;;;;;;;7.87;5.20;;;4.60;99.90;;;;;;4941123;28;20545;-83
2021/01/23 06:00:57;;;;;;;7.57;5.40;;;4.70;99.90;;;;;;4977970;28;20463;-83
2021/01/23 06:03:59;;;;;;;6.27;5.00;;;4.70;99.90;;;;;;4954508;28;20456;-84
2021/01/23 06:07:43;;;;;;;6.80;5.80;;;4.70;99.90;;;;;;4985889;28;20587;-83
2021/01/23 06:10:32;;;;;;;6.37;5.40;;;4.80;99.90;;;;;;4988568;28;20519;-85
2021/01/23 06:13:23;;;;;;;7.03;6.33;;;4.70;99.90;;;;;;4988942;28;20474;-87
2021/01/23 06:16:30;;;;;;;5.57;4.50;;;4.70;99.90;;;;;;5027312;28;20488;-86
2021/01/23 06:23:20;;;;;;;6.70;5.43;;;4.80;99.90;;;;;;5068961;28;20416;-85
2021/01/23 06:26:13;;;;;;;7.17;5.13;;;4.90;99.90;;;;;;5061479;28;20452;-83
2021/01/23 06:29:23;;;;;;;8.37;5.53;;;5.00;99.90;;;;;;5067326;28;20524;-86
2021/01/23 06:32:37;;;;;;;7.40;5.80;;;5.00;99.90;;;;;;5059707;28;20870;-84
2021/01/23 06:35:30;;;;;;;5.87;4.97;;;5.00;99.90;;;;;;5056182;28;20476;-84
2021/01/23 06:38:39;;;;;;;7.27;5.80;;;5.00;99.90;;;;;;5063163;28;20416;-85
2021/01/23 06:42:13;;;;;;;7.77;5.37;;;5.10;99.90;;;;;;5050947;28;20458;-85
2021/01/23 06:45:39;;;;;;;;;;;;;;;;;;;;;
2021/01/23 06:52:19;;;;;;;5.53;5.00;;;5.10;99.90;;;;;;5051816;28;20982;-84
2021/01/23 06:55:06;;;;;;;8.17;4.70;;;5.20;99.90;;;;;;5036477;28;20515;-85
2021/01/23 06:58:00;;;;;;;6.90;4.90;;;5.10;99.90;;;;;;5043452;28;20440;-84
2021/01/23 07:01:09;;;;;;;4.80;4.37;;;5.10;99.90;;;;;;5043750;28;20583;-84
2021/01/23 07:04:05;;;;;;;6.63;5.03;;;5.00;99.90;;;;;;5043212;28;20460;-84
2021/01/23 07:07:35;;;;;;;5.90;5.03;;;5.10;99.90;;;;;;5040748;28;20459;-86
2021/01/23 07:10:32;;;;;;;7.60;4.63;;;5.20;99.90;;;;;;5047999;28;20479;-83
2021/01/23 07:13:19;;;;;;;3.30;3.00;;;5.10;99.90;;;;;;5046336;28;20476;-85
2021/01/23 07:16:28;;;;;;;6.90;4.90;;;5.10;99.90;;;;;;5026097;28;20659;-85
2021/01/23 07:19:56;;;;;;;5.97;4.70;;;5.00;99.90;;;;;;4957230;28;20445;-87
2021/01/23 07:22:53;;;;;;;5.77;4.47;;;4.90;99.90;;;;;;4988346;28;20558;-83
2021/01/23 07:26:03;;;;;;;5.37;4.83;;;5.00;99.90;;;;;;4967537;28;20455;-84
2021/01/23 07:28:50;;;;;;;10.30;4.87;;;4.80;99.90;;;;;;4976232;28;20443;-84
2021/01/23 07:31:47;;;;;;;6.97;4.83;;;5.10;99.90;;;;;;4968344;28;20460;-86
2021/01/23 07:38:38;;;;;;;;;;;;;;;;;;;;;
2021/01/23 07:41:34;;;;;;;6.40;5.40;;;5.00;99.90;;;;;;4879482;29;20464;-84
2021/01/23 07:44:24;;;;;;;9.70;5.30;;;5.20;99.90;;;;;;4923239;28;20436;-84
2021/01/23 07:47:07;;;;;;;5.63;5.07;;;5.20;99.90;;;;;;4973762;28;20603;-85
2021/01/23 07:50:21;;;;;;;7.20;5.03;;;5.20;99.90;;;;;;4969249;28;20956;-84
2021/01/23 07:53:18;;;;;;;6.10;4.83;;;4.90;99.90;;;;;;4970467;28;20543;-83
2021/01/23 07:56:20;;;;;;;10.30;5.33;;;5.20;99.90;;;;;;4994494;22;20562;-84
2021/01/23 07:59:19;;;;;;;5.57;3.83;;;5.30;99.90;;;;;;5032453;28;20463;-86
2021/01/23 08:02:24;;;;;;;5.93;5.23;;;5.30;99.90;;;;;;5026386;28;20421;-86
2021/01/23 08:05:27;;;;;;;6.03;5.00;;;5.30;99.90;;;;;;5028664;28;20451;-85
2021/01/23 08:08:37;;;;;;;5.90;5.17;;;5.20;99.90;;;;;;5025263;28;20461;-84
2021/01/23 08:11:51;;;;;;;7.30;5.07;;;5.30;99.90;;;;;;5011117;28;20458;-84
2021/01/23 08:15:14;;;;;;;7.27;5.20;;;5.30;99.90;;;;;;5007548;28;20465;-86
2021/01/23 08:18:40;;;;;;;8.97;6.10;;;5.40;99.90;;;;;;5025241;28;21388;-86
2021/01/23 08:21:51;;;;;;;7.13;5.27;;;5.40;99.90;;;;;;5026732;28;21295;-86
2021/01/23 08:25:32;;;;;;;6.40;5.07;;;5.60;99.90;;;;;;5012285;28;20460;-86
2021/01/23 08:32:58;;;;;;;7.70;5.47;;;5.70;99.90;;;;;;4975762;28;20513;-86
2021/01/23 08:39:59;;;;;;;6.47;5.50;;;6.00;99.90;;;;;;4948011;28;20425;-86
2021/01/23 08:50:36;;;;;;;10.20;6.30;;;6.00;99.90;;;;;;4972583;28;20526;-84
2021/01/23 08:57:28;;;;;;;6.27;5.53;;;5.80;99.90;;;;;;5081348;23;20508;-83
2021/01/23 09:07:29;;;;;;;8.23;5.87;;;6.10;99.90;;;;;;5033766;28;20480;-85
2021/01/23 09:10:23;;;;;;;8.50;6.73;;;6.20;99.90;;;;;;5031519;28;20449;-85
2021/01/23 09:13:15;;;;;;;8.77;6.33;;;6.20;99.90;;;;;;5023748;28;20458;-84
2021/01/23 09:16:36;;;;;;;4.70;4.27;;;6.30;99.90;;;;;;5011954;28;20482;-84
2021/01/23 09:19:51;;;;;;;6.53;5.50;;;6.30;99.90;;;;;;5019018;28;20480;-83
2021/01/23 09:22:45;;;;;;;8.57;5.93;;;6.40;99.90;;;;;;4980129;28;20439;-84
2021/01/23 09:36:21;;;;;;;8.83;5.93;;;6.30;99.90;;;;;;1235260;26;20791;-84
2021/01/23 09:39:56;;;;;;;7.60;6.40;;;6.60;99.90;;;;;;5035428;28;20436;-81
2021/01/23 09:43:17;;;;;;;15.00;7.37;;;6.90;99.90;;;;;;5033018;28;20429;-83
2021/01/23 09:54:03;;;;;;;9.33;6.97;;;6.90;99.90;;;;;;5033906;28;20451;-84
2021/01/23 10:02:30;;;;;;;7.17;5.60;;;9.70;99.90;;;;;;4914264;29;20514;-84
2021/01/23 10:09:02;;;;;;;8.07;5.73;;;11.90;93.60;;;;;;4873617;29;20478;-84
2021/01/23 10:12:41;;;;;;;;;;;;;;;;;;;;;
2021/01/23 10:16:13;;;;;;;;;;;;;;;;;;;;;
2021/01/23 10:23:14;;;;;;;6.07;5.30;;;10.20;96.20;;;;;;4859366;29;20469;-84
2021/01/23 10:37:23;;;;;;;;;;;;;;;;;;;;;
2021/01/23 10:40:45;;;;;;;10.13;6.17;;;8.60;99.90;;;;;;4868941;29;20650;-85
2021/01/23 10:47:30;;;;;;;9.30;5.67;;;8.70;99.90;;;;;;4808080;29;20741;-83
2021/01/23 10:50:16;;;;;;;5.00;4.50;;;8.90;99.90;;;;;;4805958;29;20447;-84
2021/01/23 10:53:19;;;;;;;8.30;5.47;;;9.00;99.90;;;;;;4804327;29;20595;-83
2021/01/23 10:57:07;;;;;;;6.90;4.20;;;9.10;99.90;;;;;;4812923;29;20501;-83
2021/01/23 11:10:54;;;;;;;6.30;3.70;;;9.10;99.90;;;;;;6225441;22;20665;-84
2021/01/23 11:22:38;;;;;;;;;;;;;;;;;;;;;
2021/01/23 11:25:30;;;;;;;3.93;3.63;;;9.10;98.20;;;;;;6024396;23;20509;-85
2021/01/23 11:58:19;;;;;;;;;;;;;;;;;;;;;
2021/01/23 12:01:55;;;;;;;2.80;1.40;;;9.50;94.20;;;;;;6052860;23;20848;-85
2021/01/23 12:09:09;;;;;;;2.87;1.73;;;10.00;90.80;;;;;;6027575;23;20452;-86
2021/01/23 12:17:23;;;;;;;;;;;;;;;;;;;;;
2021/01/23 12:20:49;;;;;;;2.50;1.33;;;9.10;91.30;;;;;;5982484;24;20468;-83
2021/01/23 12:25:01;;;;;;;2.00;1.27;;;9.70;91.00;;;;;;5890148;24;20821;-85
2021/01/23 12:42:10;;;;;;;1.83;1.40;;;9.20;91.60;;;;;;5120498;27;20311;-79
2021/01/23 13:12:39;;;;;;;;;;;;;;;;;;;;;
2021/01/23 13:15:42;;;;;;;1.57;1.20;;;10.00;89.30;;;;;;4892757;28;20463;-80
2021/01/23 13:30:33;;;;;;;;;;;;;;;;;;;;;
2021/01/23 13:34:11;;;;;;;2.10;1.60;;;10.00;86.90;;;;;;4901541;29;20513;-81
2021/01/23 13:48:42;;;;;;;2.77;1.40;;;9.40;91.00;;;;;;5028151;28;20462;-79
2021/01/23 13:56:34;;;;;;;1.87;1.30;;;9.30;91.50;;;;;;4996189;28;20567;-80
2021/01/23 14:15:45;;;;;;;2.77;1.73;;;9.60;91.10;;;;;;4928133;29;20445;-81
2021/01/23 14:23:15;;;;;;;2.57;1.90;;;9.50;91.50;;;;;;4928278;29;20549;-81
2021/01/23 14:26:17;;;;;;;1.87;1.33;;;9.40;91.60;;;;;;4917882;29;20970;-80
2021/01/23 14:30:07;;;;;;;1.97;1.80;;;9.40;91.60;;;;;;5025262;28;20461;-80
2021/01/23 14:33:30;;;;;;;1.27;1.17;;;9.30;92.00;;;;;;4951649;28;20540;-78
2021/01/23 14:36:28;;;;;;;5.30;2.43;;;9.40;92.20;;;;;;4956100;28;20457;-80
2021/01/23 14:39:32;;;;;;;1.73;1.30;;;9.40;92.20;;;;;;5001347;28;20441;-79
2021/01/23 14:42:39;;;;;;;;;;;;;;;;;;;;;
2021/01/23 14:46:02;;;;;;;3.10;1.33;;;9.20;92.60;;;;;;5016649;28;20508;-80
2021/01/23 14:53:07;;;;;;;0.80;0.80;;;9.20;92.70;;;;;;4961376;28;20436;-79
2021/01/23 14:55:56;;;;;;;1.60;1.20;;;9.10;92.70;;;;;;5001953;28;20472;-78
2021/01/23 15:03:15;;;;;;;1.27;0.97;;;9.00;92.90;;;;;;4931954;28;20454;-78
2021/01/23 15:07:18;;;;;;;;;;;;;;;;;;;;;
2021/01/23 15:14:41;;;;;;;3.40;1.57;;;9.00;92.90;;;;;;4864481;29;20441;-80
2021/01/23 15:21:13;;;;;;;2.10;1.23;;;9.20;92.80;;;;;;4872739;29;20497;-82
2021/01/23 15:24:27;;;;;;;6.43;1.33;;;9.10;92.90;;;;;;4856064;29;20464;-79
2021/01/23 15:28:09;;;;;;;1.47;1.17;;;9.10;93.10;;;;;;4858204;29;20481;-81
2021/01/23 15:30:49;;;;;;;2.20;1.30;;;9.10;92.90;;;;;;4860330;29;20508;-79
2021/01/23 15:33:48;;;;;;;1.10;1.00;;;9.10;93.20;;;;;;4858410;29;20461;-80
2021/01/23 15:37:20;;;;;;;2.87;1.53;;;9.10;93.30;;;;;;4785455;29;20520;-80
2021/01/23 15:40:37;;;;;;;;;;;;;;;;;;;;;
2021/01/23 15:44:00;;;;;;;3.20;2.00;;;8.90;93.80;;;;;;4821731;29;20478;-80
2021/01/23 15:51:02;;;;;;;1.60;1.10;;;8.90;94.70;;;;;;4774833;29;20517;-81
2021/01/23 15:54:41;;;;;;;2.73;1.17;;;9.10;94.00;;;;;;4759487;29;20459;-79
2021/01/23 15:58:14;;;;;;;1.40;1.30;;;9.10;94.20;;;;;;4768309;29;20478;-79
2021/01/23 16:06:11;;;;;;;;;;;;;;;;;;;;;
2021/01/23 16:09:06;;;;;;;3.10;2.20;;;8.90;95.30;;;;;;4745596;30;20496;-80
2021/01/23 16:12:08;;;;;;;4.40;2.73;;;9.10;95.00;;;;;;4743868;30;20463;-80
2021/01/23 16:15:43;;;;;;;2.77;1.73;;;8.90;95.10;;;;;;4765767;29;20516;-81
2021/01/23 16:19:12;;;;;;;1.90;1.70;;;8.70;95.50;;;;;;4802467;29;20466;-79
2021/01/23 16:22:18;;;;;;;4.27;1.60;;;8.50;96.60;;;;;;4740775;30;20925;-81
2021/01/23 16:26:49;;;;;;;;;;;;;;;;;;;;;
2021/01/23 16:33:48;;;;;;;1.70;1.60;;;8.80;96.20;;;;;;4813242;29;20448;-78
2021/01/23 16:37:18;;;;;;;1.67;1.37;;;8.50;96.90;;;;;;4870397;29;22556;-83
2021/01/23 16:40:45;;;;;;;;;;;;;;;;;;;;;
2021/01/23 16:47:41;;;;;;;2.03;1.77;;;8.40;98.00;;;;;;4865342;29;20455;-78
2021/01/23 16:51:16;;;;;;;2.77;1.70;;;8.40;97.80;;;;;;4915600;29;20441;-81
2021/01/23 16:54:30;;;;;;;3.70;1.37;;;8.20;98.20;;;;;;4976665;28;20445;-79
2021/01/23 17:01:14;;;;;;;1.63;1.50;;;8.10;98.80;;;;;;5008246;28;20999;-81
2021/01/23 17:12:41;;;;;;;1.90;1.43;;;8.40;98.30;;;;;;4950901;28;20453;-77
2021/01/23 17:19:29;;;;;;;1.60;1.50;;;8.40;99.90;;;;;;5007768;23;20463;-80
2021/01/23 17:22:49;;;;;;;1.33;1.23;;;8.20;99.90;;;;;;4982104;28;20442;-79
2021/01/23 17:25:51;;;;;;;2.67;2.47;;;8.20;99.90;;;;;;4951608;28;20483;-81
2021/01/23 17:29:29;;;;;;;3.10;1.93;;;8.30;99.90;;;;;;4954799;28;20474;-81
2021/01/23 17:32:46;;;;;;;3.00;1.90;;;8.40;99.90;;;;;;4979932;28;20481;-82
2021/01/23 17:42:53;;;;;;;1.43;1.33;;;8.30;99.90;;;;;;4843255;29;20567;-80
2021/01/23 17:45:58;;;;;;;2.70;1.90;;;8.20;99.90;;;;;;4866453;29;20488;-79
2021/01/23 17:49:29;;;;;;;;;;;;;;;;;;;;;
2021/01/23 17:52:47;;;;;;;2.77;2.20;;;8.10;99.90;;;;;;4906802;29;20493;-80
2021/01/23 17:56:17;;;;;;;5.57;2.80;;;8.20;99.90;;;;;;4921302;29;20474;-77
2021/01/23 18:03:53;;;;;;;2.43;2.23;;;8.20;99.90;;;;;;4808735;29;20461;-79
2021/01/23 18:07:23;;;;;;;3.20;1.90;;;8.20;99.90;;;;;;4828247;29;20486;-78
2021/01/23 18:10:33;;;;;;;2.17;1.87;;;8.00;99.90;;;;;;4801645;29;20471;-79
2021/01/23 18:13:36;;;;;;;3.60;2.97;;;8.10;99.90;;;;;;4780885;29;20441;-81
2021/01/23 18:16:59;;;;;;;;;;;;;;;;;;;;;
2021/01/23 18:20:37;;;;;;;2.30;2.10;;;8.30;99.90;;;;;;4904027;29;20951;-78
2021/01/23 18:23:46;;;;;;;;;;;;;;;;;;;;;
2021/01/23 18:27:22;;;;;;;2.30;2.13;;;7.90;99.90;;;;;;5053391;22;20505;-81
2021/01/23 18:34:19;;;;;;;3.30;3.00;;;7.80;99.90;;;;;;4997733;28;20518;-81
2021/01/23 18:37:18;;;;;;;;;;;;;;;;;;;;;
2021/01/23 18:44:23;;;;;;;;;;;;;;;;;;;;;
2021/01/23 18:51:06;;;;;;;3.47;2.80;;;7.70;99.90;;;;;;4920339;28;20527;-77
2021/01/23 18:54:50;;;;;;;;;;;;;;;;;;;;;
2021/01/23 18:58:05;;;;;;;;;;;;;;;;;;;;;
2021/01/23 19:04:49;;;;;;;;;;;;;;;;;;;;;
2021/01/23 19:11:23;;;;;;;;;;;;;;;;;;;;;
2021/01/23 19:14:54;;;;;;;4.23;3.83;;;7.40;99.90;;;;;;4942427;29;20488;-79
2021/01/23 19:18:09;;;;;;;4.13;3.50;;;7.50;99.90;;;;;;5011575;28;20516;-78
2021/01/23 19:21:43;;;;;;;4.20;3.33;;;7.50;99.90;;;;;;5008867;28;20493;-80
2021/01/23 19:29:17;;;;;;;;;;;;;;;;;;;;;
2021/01/23 19:32:30;;;;;;;5.90;3.60;;;7.10;99.90;;;;;;4803531;29;20453;-80
2021/01/23 19:40:16;;;;;;;3.97;3.57;;;7.20;99.90;;;;;;4850799;29;21087;-82
2021/01/23 19:43:26;;;;;;;8.60;5.17;;;7.20;99.90;;;;;;4786131;29;20456;-81
2021/01/23 19:46:49;;;;;;;7.03;4.80;;;7.30;99.90;;;;;;4824462;29;20461;-81
2021/01/23 19:53:49;;;;;;;7.23;5.30;;;7.10;99.90;;;;;;4832953;29;21006;-81
2021/01/23 20:04:18;;;;;;;7.53;6.03;;;7.20;99.90;;;;;;4864713;28;20462;-82
2021/01/23 20:07:52;;;;;;;8.30;6.07;;;7.40;99.90;;;;;;4917451;28;21218;-80
2021/01/23 20:11:01;;;;;;;7.37;6.67;;;7.20;99.90;;;;;;4878257;29;20448;-79
2021/01/23 20:14:07;;;;;;;6.77;6.07;;;7.10;99.90;;;;;;4888478;29;20642;-80
2021/01/23 20:17:42;;;;;;;;;;;;;;;;;;;;;
2021/01/23 20:21:02;;;;;;;;;;;;;;;;;;;;;
2021/01/23 20:28:12;;;;;;;2.70;2.50;;;7.00;99.90;;;;;;4848529;29;20518;-80
2021/01/23 20:35:20;;;;;;;5.77;4.20;;;6.70;99.90;;;;;;4914886;28;20456;-78
2021/01/23 20:38:31;;;;;;;2.87;2.47;;;6.70;99.90;;;;;;4936676;28;20455;-80
2021/01/23 20:41:40;;;;;;;3.13;2.90;;;6.70;99.90;;;;;;4960247;28;20481;-81
2021/01/23 20:47:42;;;;;;;3.93;3.23;;;6.50;99.90;;;;;;4982615;28;20625;-81
2021/01/23 20:54:13;;;;;;;3.90;3.53;;;6.60;99.90;;;;;;4902531;28;20478;-81
2021/01/23 20:57:27;;;;;;;;;;;;;;;;;;;;;
2021/01/23 21:00:58;;;;;;;4.60;3.90;;;6.50;99.90;;;;;;4906715;29;20488;-79
2021/01/23 21:04:11;;;;;;;5.33;4.50;;;6.50;99.90;;;;;;4895023;29;20546;-79
2021/01/23 21:07:24;;;;;;;4.53;3.83;;;6.50;99.90;;;;;;4860152;29;20592;-82
2021/01/23 21:10:51;;;;;;;4.83;4.43;;;6.30;99.90;;;;;;4838714;29;20552;-78
2021/01/23 21:13:56;;;;;;;4.60;3.20;;;6.20;99.90;;;;;;4864432;29;20438;-78
2021/01/23 21:17:15;;;;;;;5.60;5.00;;;6.20;99.90;;;;;;4877483;29;20496;-79
2021/01/23 21:20:13;;;;;;;5.50;4.40;;;6.10;99.90;;;;;;4857146;29;20523;-78
2021/01/23 21:27:14;;;;;;;6.00;5.40;;;6.50;99.90;;;;;;5105471;22;21364;-77
2021/01/23 21:33:47;;;;;;;4.83;4.20;;;6.20;99.90;;;;;;4981746;28;20448;-80
2021/01/23 21:43:58;;;;;;;7.57;4.97;;;6.40;99.90;;;;;;4936528;29;21025;-82
2021/01/23 21:51:29;;;;;;;6.40;5.63;;;6.50;99.90;;;;;;4773150;30;20462;-79
2021/01/23 21:54:28;;;;;;;8.30;5.83;;;6.40;99.90;;;;;;4760631;29;20449;-79
2021/01/23 22:01:50;;;;;;;6.40;5.53;;;6.30;99.90;;;;;;4673683;30;20552;-78
2021/01/23 22:16:08;;;;;;;;;;;;;;;;;;;;;
2021/01/23 22:22:57;;;;;;;7.60;5.60;;;6.00;99.90;;;;;;4853274;29;20468;-80
2021/01/23 22:26:35;;;;;;;;;;;;;;;;;;;;;
2021/01/23 22:29:35;;;;;;;5.40;4.93;;;5.90;99.90;;;;;;4864066;29;20449;-80
2021/01/23 22:39:16;;;;;;;7.53;5.33;;;6.00;99.90;;;;;;4806234;29;21461;-78
2021/01/23 22:42:52;;;;;;;;;;;;;;;;;;;;;
2021/01/23 22:49:34;;;;;;;6.50;5.40;;;5.80;99.90;;;;;;4878196;29;20492;-79
2021/01/23 22:52:39;;;;;;;6.37;5.73;;;5.80;99.90;;;;;;4872606;29;20445;-78
2021/01/23 22:56:33;;;;;;;6.13;4.97;;;5.80;99.90;;;;;;4923241;29;20482;-79
2021/01/23 22:59:25;;;;;;;5.83;4.60;;;5.90;99.90;;;;;;4919611;29;20474;-79
2021/01/23 23:05:38;;;;;;;5.83;5.20;;;6.00;99.90;;;;;;4994976;28;20517;-80
2021/01/23 23:08:58;;;;;;;5.37;4.73;;;5.70;99.90;;;;;;4987074;28;20447;-79
2021/01/23 23:12:09;;;;;;;5.87;4.90;;;5.70;99.90;;;;;;4896429;29;20513;-80
2021/01/23 23:15:21;;;;;;;5.10;4.60;;;5.80;99.90;;;;;;4903060;29;20454;-81
2021/01/23 23:18:51;;;;;;;5.70;5.20;;;6.00;99.90;;;;;;4902221;29;20451;-79
2021/01/23 23:22:00;;;;;;;5.40;4.83;;;5.90;99.90;;;;;;4890497;29;20515;-80
2021/01/23 23:25:21;;;;;;;6.87;6.10;;;6.00;99.90;;;;;;4894071;29;20567;-78
2021/01/23 23:28:43;;;;;;;6.03;4.87;;;5.90;99.90;;;;;;4906941;29;20431;-81
2021/01/23 23:35:27;;;;;;;6.47;5.93;;;5.90;99.90;;;;;;4891877;29;20448;-80
2021/01/23 23:38:56;;;;;;;7.00;5.70;;;6.00;99.90;;;;;;4831750;29;20633;-78
2021/01/23 23:51:35;;;;;;;7.27;6.57;;;5.90;99.90;;;;;;4975384;28;20546;-80
2021/01/23 23:54:38;;;;;;;7.47;5.90;;;5.80;99.90;;;;;;4855178;29;20474;-80
2021/01/23 23:58:09;;;;;;;6.80;5.97;;;5.90;99.90;;;;;;4798008;29;20590;-80
